Time;durP1;ratioP1;P1;durP2;ratioP2;P2;SDS_P1;SDS_P2;PMS_P1;PMS_P2;Temp;Humidity;BMP_temperature;BMP_pressure;BME280_temperature;BME280_humidity;BME280_pressure;Samples;Min_cycle;Max_cycle;Signal;HPM_P1;HPM_P2
2022/04/12 00:00:14;;;;;;;3.10;2.30;;;;;;;6.10;55.78;97467.13;6281050;22;20161;-84
2022/04/12 00:02:41;;;;;;;3.37;2.30;;;;;;;6.29;55.71;97481.28;6274442;22;20169;-84
2022/04/12 00:05:12;;;;;;;2.60;2.00;;;;;;;6.27;55.94;97483.03;6276633;22;20198;-86
2022/04/12 00:07:58;;;;;;;3.10;2.40;;;;;;;6.04;55.36;97451.84;6282419;22;20194;-86
2022/04/12 00:10:30;;;;;;;2.67;2.10;;;;;;;6.07;55.29;97467.19;6271490;22;20244;-89
2022/04/12 00:12:59;;;;;;;4.50;2.60;;;;;;;6.21;55.91;97480.59;6272580;22;20165;-92
2022/04/12 00:15:30;;;;;;;4.27;2.40;;;;;;;6.20;54.14;97448.03;6270678;22;20176;-92
2022/04/12 00:20:43;;;;;;;2.50;2.30;;;;;;;6.34;53.02;97451.19;6272180;22;20177;-84
2022/04/12 00:23:12;;;;;;;3.00;2.57;;;;;;;6.50;53.08;97465.38;6271539;22;20511;-88
2022/04/12 00:25:45;;;;;;;2.70;2.50;;;;;;;6.54;53.35;97463.56;6271468;22;20663;-88
2022/04/12 00:28:13;;;;;;;3.90;2.53;;;;;;;6.52;54.08;97466.19;6273329;22;20167;-85
2022/04/12 00:30:43;;;;;;;2.60;2.20;;;;;;;6.47;53.96;97473.16;6275537;22;20493;-87
2022/04/12 00:33:10;;;;;;;3.83;2.53;;;;;;;6.41;53.86;97475.00;6274316;22;20242;-85
2022/04/12 00:35:37;;;;;;;2.63;2.13;;;;;;;6.33;54.21;97477.75;6277050;22;20170;-87
2022/04/12 00:38:16;;;;;;;3.20;2.10;;;;;;;6.10;53.40;97438.03;6292980;22;20230;-86
2022/04/12 00:40:46;;;;;;;6.40;2.77;;;;;;;6.28;54.00;97471.03;6278854;22;20164;-85
2022/04/12 00:43:19;;;;;;;2.67;2.27;;;;;;;6.23;54.21;97470.28;6282749;22;20262;-83
2022/04/12 00:45:47;;;;;;;3.17;2.43;;;;;;;6.22;54.43;97461.72;6274289;22;20195;-90
2022/04/12 00:48:14;;;;;;;2.30;2.00;;;;;;;6.01;54.44;97454.47;6248646;22;20168;-85
2022/04/12 00:50:44;;;;;;;3.97;2.23;;;;;;;6.03;54.33;97452.72;6275095;22;20162;-85
2022/04/12 00:53:13;;;;;;;3.20;2.00;;;;;;;6.14;54.31;97478.22;6278872;22;20668;-88
2022/04/12 00:55:40;;;;;;;2.20;2.00;;;;;;;6.03;54.02;97462.16;6275927;22;20649;-90
2022/04/12 00:58:10;;;;;;;3.87;2.20;;;;;;;5.90;54.22;97437.56;6276896;22;20178;-86
2022/04/12 01:00:37;;;;;;;2.27;1.93;;;;;;;5.93;55.33;97446.09;6283862;22;20189;-84
2022/04/12 01:03:04;;;;;;;4.00;2.07;;;;;;;6.05;55.08;97470.69;6282529;22;20163;-88
2022/04/12 01:05:32;;;;;;;3.20;2.30;;;;;;;6.02;54.97;97469.00;6287532;22;20197;-86
2022/04/12 01:08:01;;;;;;;4.03;2.27;;;;;;;6.00;54.75;97462.19;6253964;22;20632;-86
2022/04/12 01:10:33;;;;;;;2.33;2.13;;;;;;;5.95;54.70;97458.91;6280662;22;20165;-85
2022/04/12 01:13:01;;;;;;;2.47;2.17;;;;;;;5.91;55.82;97455.56;6282070;22;20169;-85
2022/04/12 01:15:29;;;;;;;2.73;2.30;;;;;;;5.78;54.80;97429.22;6281128;22;20166;-84
2022/04/12 01:17:57;;;;;;;3.97;2.00;;;;;;;5.87;54.57;97443.66;6280659;22;20231;-84
2022/04/12 01:20:29;;;;;;;4.27;2.50;;;;;;;5.91;54.65;97460.69;6280470;22;20526;-83
2022/04/12 01:23:15;;;;;;;2.77;2.47;;;;;;;5.89;55.61;97457.31;6280257;22;20241;-84
2022/04/12 01:25:43;;;;;;;2.77;2.13;;;;;;;5.76;55.80;97432.69;6277332;22;20190;-95
2022/04/12 01:28:11;;;;;;;3.20;2.83;;;;;;;5.81;55.57;97442.91;6274167;22;20646;-94
2022/04/12 01:30:38;;;;;;;2.93;2.20;;;;;;;5.77;55.91;97445.50;6272117;22;20220;-96
2022/04/12 01:33:06;;;;;;;3.40;2.40;;;;;;;5.79;55.27;97448.03;6276567;22;20224;-95
2022/04/12 01:35:34;;;;;;;3.13;2.40;;;;;;;5.76;55.21;97453.25;6277989;22;20225;-96
2022/04/12 01:38:03;;;;;;;3.87;2.50;;;;;;;5.66;56.04;97438.91;6277396;22;20163;-96
2022/04/12 01:40:30;;;;;;;4.27;3.13;;;;;;;5.65;55.20;97424.34;6284469;22;20187;-96
2022/04/12 01:43:00;;;;;;;3.90;2.43;;;;;;;5.82;56.02;97450.56;6289941;22;20180;-91
2022/04/12 01:45:29;;;;;;;3.90;2.73;;;;;;;5.87;55.39;97450.50;6298439;22;20202;-85
2022/04/12 01:47:56;;;;;;;3.33;2.23;;;;;;;5.86;55.33;97448.81;6299676;22;20189;-91
2022/04/12 01:50:23;;;;;;;2.97;2.30;;;;;;;5.90;54.88;97446.13;6303213;22;20162;-87
2022/04/12 01:52:51;;;;;;;2.87;2.57;;;;;;;5.77;55.29;97426.66;6304346;22;20167;-84
2022/04/12 01:55:21;;;;;;;3.67;2.20;;;;;;;5.68;55.58;97421.75;6304554;22;20177;-88
2022/04/12 01:57:51;;;;;;;2.77;2.17;;;;;;;5.65;54.66;97416.66;6301235;22;20161;-90
2022/04/12 02:00:18;;;;;;;3.53;2.50;;;;;;;5.78;55.46;97438.66;6297707;22;20171;-87
2022/04/12 02:02:45;;;;;;;2.43;2.10;;;;;;;5.86;55.56;97452.22;6295532;22;20230;-93
2022/04/12 02:05:12;;;;;;;2.87;2.47;;;;;;;5.79;54.85;97430.06;6292778;22;20193;-83
2022/04/12 02:07:43;;;;;;;3.73;2.50;;;;;;;5.89;55.56;97454.75;6295374;22;20195;-84
2022/04/12 02:10:11;;;;;;;2.50;2.30;;;;;;;5.58;55.40;97402.25;6296566;22;20157;-84
2022/04/12 02:12:37;;;;;;;3.27;2.97;;;;;;;5.61;56.39;97402.19;6287646;22;20208;-88
2022/04/12 02:15:06;;;;;;;4.00;2.93;;;;;;;5.89;55.03;97446.19;6285389;22;20162;-92
2022/04/12 02:17:35;;;;;;;4.50;2.43;;;;;;;5.69;55.19;97424.28;6279455;22;20165;-85
2022/04/12 02:20:04;;;;;;;3.90;3.00;;;;;;;5.79;56.32;97433.47;6284075;22;20170;-87
2022/04/12 02:22:31;;;;;;;4.37;2.80;;;;;;;5.95;56.31;97436.63;6284341;22;20231;-87
2022/04/12 02:25:03;;;;;;;3.93;2.70;;;;;;;6.17;55.85;97447.28;6279512;22;20187;-87
2022/04/12 02:27:31;;;;;;;3.47;2.53;;;;;;;6.18;56.24;97424.09;6292748;22;20173;-88
2022/04/12 02:29:58;;;;;;;4.60;2.70;;;;;;;6.22;56.43;97423.13;6293147;22;20197;-88
2022/04/12 02:32:26;;;;;;;3.10;2.80;;;;;;;6.47;55.73;97447.44;6292125;22;20182;-85
2022/04/12 02:34:57;;;;;;;4.43;2.67;;;;;;;6.33;55.38;97423.75;6292160;22;20291;-86
2022/04/12 02:37:28;;;;;;;2.83;2.53;;;;;;;6.37;55.91;97430.50;6299200;22;20215;-84
2022/04/12 02:39:55;;;;;;;2.80;2.60;;;;;;;6.36;55.46;97434.00;6303125;22;20159;-85
2022/04/12 02:42:22;;;;;;;2.87;2.20;;;;;;;6.35;54.77;97427.13;6291699;22;20219;-89
2022/04/12 02:44:49;;;;;;;6.40;2.10;;;;;;;6.39;54.38;97438.19;6279375;22;20163;-94
2022/04/12 02:47:16;;;;;;;2.60;2.40;;;;;;;6.38;54.46;97427.06;6279336;22;20157;-94
2022/04/12 02:49:45;;;;;;;3.57;2.30;;;;;;;6.55;54.71;97455.81;6284825;22;20166;-89
2022/04/12 02:52:12;;;;;;;3.13;2.60;;;;;;;6.54;53.49;97445.56;6278571;22;20169;-93
2022/04/12 02:54:39;;;;;;;3.33;2.60;;;;;;;6.63;54.60;97449.66;6279802;22;20245;-96
2022/04/12 02:57:06;;;;;;;5.43;2.93;;;;;;;6.46;54.34;97411.44;6273384;22;20179;-94
2022/04/12 02:59:35;;;;;;;3.33;2.70;;;;;;;6.31;54.36;97430.66;6294731;22;20164;-91
2022/04/12 03:02:02;;;;;;;3.03;2.40;;;;;;;6.20;55.18;97417.19;6284564;22;20259;-96
2022/04/12 03:04:30;;;;;;;4.00;2.77;;;;;;;6.07;55.19;97431.22;6290144;22;20162;-91
2022/04/12 03:06:58;;;;;;;7.07;4.20;;;;;;;5.96;55.62;97432.31;6280170;22;20198;-93
2022/04/12 03:09:25;;;;;;;6.23;3.33;;;;;;;6.06;56.50;97454.41;6272608;22;20195;-95
2022/04/12 03:11:53;;;;;;;2.90;2.00;;;;;;;5.63;57.26;97413.28;6273845;22;20187;-96
2022/04/12 03:14:20;;;;;;;3.27;2.20;;;;;;;5.48;56.69;97404.16;6273826;22;20158;-96
2022/04/12 03:16:47;;;;;;;3.37;2.47;;;;;;;5.87;56.73;97442.81;6283668;22;20177;-88
2022/04/12 03:19:14;;;;;;;5.00;2.90;;;;;;;6.05;57.69;97448.41;6286443;22;20232;-94
2022/04/12 03:21:42;;;;;;;5.60;3.50;;;;;;;6.30;56.31;97465.00;6294709;22;20189;-91
2022/04/12 03:24:10;;;;;;;4.57;3.20;;;;;;;6.29;55.49;97436.72;6286653;22;20199;-93
2022/04/12 03:26:38;;;;;;;4.37;3.30;;;;;;;6.04;57.01;97438.97;6274236;22;20550;-91
2022/04/12 03:29:07;;;;;;;4.47;2.67;;;;;;;6.06;57.01;97470.63;6270774;22;20172;-94
2022/04/12 03:31:35;;;;;;;5.80;3.13;;;;;;;5.64;57.50;97448.38;6269913;22;20224;-94
2022/04/12 03:34:03;;;;;;;4.37;3.60;;;;;;;5.74;59.61;97466.16;6271296;22;20174;-92
2022/04/12 03:36:30;;;;;;;5.07;2.90;;;;;;;5.64;57.88;97461.22;6248492;22;20524;-91
2022/04/12 03:38:58;;;;;;;5.43;3.47;;;;;;;5.74;59.07;97463.56;6272057;22;20162;-94
2022/04/12 03:41:26;;;;;;;3.30;2.83;;;;;;;5.55;58.89;97457.09;6269803;22;20174;-85
2022/04/12 03:43:53;;;;;;;4.43;2.83;;;;;;;5.38;58.45;97438.59;6272252;22;20222;-85
2022/04/12 03:46:21;;;;;;;4.13;3.67;;;;;;;5.43;58.59;97466.75;6272517;22;20205;-86
2022/04/12 03:48:48;;;;;;;4.30;3.30;;;;;;;5.35;58.79;97463.50;6273544;22;20165;-85
2022/04/12 03:51:20;;;;;;;4.37;2.90;;;;;;;5.04;59.21;97416.16;6272735;22;20162;-88
2022/04/12 03:53:49;;;;;;;5.03;3.30;;;;;;;5.31;58.19;97462.72;6269820;22;20170;-85
2022/04/12 03:56:16;;;;;;;3.93;2.73;;;;;;;5.16;58.30;97451.84;6276312;22;20176;-84
2022/04/12 03:58:44;;;;;;;5.20;2.47;;;;;;;4.71;58.44;97366.28;6281294;22;20170;-85
2022/04/12 04:01:14;;;;;;;4.03;2.80;;;;;;;5.32;59.21;97469.53;6279467;22;20482;-84
2022/04/12 04:03:43;;;;;;;5.07;2.60;;;;;;;5.37;58.20;97479.72;6278964;22;20226;-83
2022/04/12 04:06:11;;;;;;;4.87;2.77;;;;;;;5.34;58.60;97460.06;6280745;22;20196;-85
2022/04/12 04:08:38;;;;;;;5.60;3.70;;;;;;;5.40;58.09;97436.03;6281892;22;20212;-83
2022/04/12 04:11:06;;;;;;;6.60;3.57;;;;;;;5.63;57.50;97449.22;6281645;22;20236;-83
2022/04/12 04:13:36;;;;;;;6.87;4.60;;;;;;;6.08;57.14;97480.91;6287422;22;20188;-81
2022/04/12 04:16:05;;;;;;;7.77;4.33;;;;;;;6.26;55.97;97440.22;6286418;22;20170;-80
2022/04/12 04:18:36;;;;;;;11.57;5.70;;;;;;;6.58;56.47;97476.34;6288693;22;20163;-82
2022/04/12 04:21:04;;;;;;;15.43;7.57;;;;;;;6.57;56.98;97484.91;6291387;22;20173;-89
2022/04/12 04:23:34;;;;;;;11.77;6.13;;;;;;;6.37;56.56;97471.66;6298048;22;20189;-84
2022/04/12 04:26:02;;;;;;;12.77;6.27;;;;;;;6.75;56.61;97487.94;6295376;22;20194;-88
2022/04/12 04:28:33;;;;;;;10.43;4.63;;;;;;;6.98;54.92;97472.81;6289921;22;20222;-85
2022/04/12 04:31:01;;;;;;;11.37;4.90;;;;;;;7.35;53.86;97483.88;6285221;22;20227;-96
2022/04/12 04:33:28;;;;;;;7.77;5.53;;;;;;;7.61;53.79;97471.13;6231978;22;20238;-85
2022/04/12 04:35:55;;;;;;;14.00;4.60;;;;;;;7.93;53.10;97509.75;6293063;22;20351;-91
2022/04/12 04:38:22;;;;;;;11.27;5.17;;;;;;;8.06;52.68;97498.22;6287412;22;20164;-87
2022/04/12 04:40:50;;;;;;;11.47;5.47;;;;;;;8.12;51.95;97497.19;6291335;22;20244;-93
2022/04/12 04:43:21;;;;;;;12.67;4.80;;;;;;;8.37;51.13;97512.81;6285279;22;20186;-92
2022/04/12 04:45:48;;;;;;;8.43;4.33;;;;;;;8.35;50.56;97520.63;6276573;22;20648;-92
2022/04/12 04:48:18;;;;;;;12.50;4.50;;;;;;;8.46;49.84;97518.56;6278560;22;20172;-93
2022/04/12 04:50:48;;;;;;;10.07;4.30;;;;;;;8.56;49.02;97519.13;6279752;22;20215;-92
2022/04/12 04:53:16;;;;;;;6.70;4.20;;;;;;;8.81;48.58;97523.50;6279451;22;20540;-92
2022/04/12 04:55:43;;;;;;;8.50;3.90;;;;;;;8.79;48.19;97514.13;6293219;22;20165;-94
2022/04/12 04:58:14;;;;;;;4.70;3.67;;;;;;;8.82;47.37;97514.03;6277159;22;20172;-90
2022/04/12 05:00:43;;;;;;;10.30;4.30;;;;;;;8.78;48.79;97525.31;6274718;22;20184;-93
2022/04/12 05:03:13;;;;;;;9.40;4.87;;;;;;;8.96;48.77;97523.00;6274408;22;20560;-93
2022/04/12 05:05:41;;;;;;;11.17;4.63;;;;;;;9.11;47.50;97532.03;6248664;22;20584;-95
2022/04/12 05:08:10;;;;;;;5.97;4.00;;;;;;;9.33;47.61;97514.94;6273871;22;20258;-92
2022/04/12 05:10:37;;;;;;;5.93;4.40;;;;;;;9.06;47.67;97481.41;6273527;22;20736;-92
2022/04/12 05:13:05;;;;;;;14.00;7.27;;;;;;;9.36;48.34;97525.16;6274082;22;20180;-93
2022/04/12 05:15:32;;;;;;;10.47;5.90;;;;;;;9.60;47.95;97526.91;6277010;22;20161;-90
2022/04/12 05:18:02;;;;;;;11.30;4.90;;;;;;;9.84;46.84;97522.66;6273946;22;20179;-94
2022/04/12 05:20:31;;;;;;;8.43;4.37;;;;;;;9.95;46.42;97530.03;6274096;22;20560;-94
2022/04/12 05:22:58;;;;;;;6.23;3.23;;;;;;;9.71;44.57;97501.53;6272446;22;20180;-92
2022/04/12 05:25:24;;;;;;;7.37;3.47;;;;;;;9.88;45.51;97521.63;6274622;22;20160;-91
2022/04/12 05:27:53;;;;;;;6.57;3.90;;;;;;;9.82;45.51;97486.50;6275092;22;20191;-95
2022/04/12 05:30:21;;;;;;;11.80;4.40;;;;;;;10.18;44.75;97528.31;6274218;22;20187;-94
2022/04/12 05:32:51;;;;;;;5.20;3.17;;;;;;;9.86;44.71;97489.81;6276181;22;20554;-95
2022/04/12 05:35:18;;;;;;;5.60;3.20;;;;;;;10.03;44.07;97518.53;6273188;22;20584;-92
2022/04/12 05:37:51;;;;;;;5.17;3.43;;;;;;;9.99;43.94;97519.53;6279857;22;20166;-91
2022/04/12 05:40:22;;;;;;;6.43;3.03;;;;;;;9.81;43.29;97508.06;6277382;22;20682;-86
2022/04/12 05:42:53;;;;;;;4.10;3.00;;;;;;;9.87;43.47;97499.25;6279807;22;21061;-88
2022/04/12 05:45:20;;;;;;;4.97;2.90;;;;;;;9.81;43.68;97527.91;6275500;22;20173;-85
2022/04/12 05:47:52;;;;;;;7.20;3.17;;;;;;;9.74;44.35;97531.63;6270567;22;20279;-88
2022/04/12 05:50:24;;;;;;;5.87;2.90;;;;;;;9.90;44.36;97535.38;6274279;22;20156;-88
2022/04/12 05:52:53;;;;;;;3.03;2.53;;;;;;;9.82;44.13;97519.28;6282954;22;20168;-89
2022/04/12 05:55:22;;;;;;;3.30;2.63;;;;;;;10.23;43.82;97526.44;6277199;22;20215;-94
2022/04/12 05:57:53;;;;;;;8.57;3.97;;;;;;;10.35;43.69;97532.88;6273928;22;20195;-91
2022/04/12 06:00:22;;;;;;;6.40;4.00;;;;;;;10.24;43.96;97542.81;6273242;22;20581;-88
2022/04/12 06:02:54;;;;;;;10.40;4.37;;;;;;;10.42;44.08;97524.84;6276744;22;20653;-89
2022/04/12 06:05:23;;;;;;;5.00;3.87;;;;;;;10.33;43.46;97490.69;6273761;22;20172;-91
2022/04/12 06:07:51;;;;;;;5.53;2.90;;;;;;;10.26;42.99;97497.81;6277649;22;20677;-89
2022/04/12 06:10:21;;;;;;;8.47;3.40;;;;;;;10.35;43.56;97510.44;6277484;22;20235;-88
2022/04/12 06:12:55;;;;;;;4.07;2.80;;;;;;;10.23;42.74;97510.06;6279703;22;20165;-83
2022/04/12 06:15:23;;;;;;;3.47;2.90;;;;;;;10.24;42.83;97522.09;6283127;22;20247;-84
2022/04/12 06:17:53;;;;;;;4.07;2.83;;;;;;;10.51;42.54;97516.72;6279610;22;20531;-85
2022/04/12 06:20:23;;;;;;;4.07;2.77;;;;;;;10.84;42.27;97527.53;6280822;22;20254;-84
2022/04/12 06:22:52;;;;;;;3.50;2.90;;;;;;;10.75;41.32;97530.50;6272396;22;20164;-94
2022/04/12 06:25:22;;;;;;;4.17;2.60;;;;;;;10.56;41.41;97517.41;6273147;22;20177;-88
2022/04/12 06:27:52;;;;;;;3.37;2.73;;;;;;;10.16;41.76;97500.84;6271859;22;20192;-87
2022/04/12 06:30:22;;;;;;;3.60;2.77;;;;;;;10.48;42.31;97531.53;6273199;22;20176;-85
2022/04/12 06:32:55;;;;;;;7.43;2.77;;;;;;;10.42;41.29;97506.75;6273263;22;20172;-92
2022/04/12 06:35:26;;;;;;;7.13;2.70;;;;;;;10.62;40.98;97498.19;6274427;22;20160;-86
2022/04/12 06:37:56;;;;;;;4.03;2.50;;;;;;;10.87;40.40;97535.19;6274131;22;20222;-87
2022/04/12 06:40:25;;;;;;;3.23;2.47;;;;;;;10.70;41.40;97534.16;6273258;22;20291;-85
2022/04/12 06:42:53;;;;;;;3.50;2.40;;;;;;;10.60;41.23;97528.50;6275686;22;20696;-91
2022/04/12 06:45:22;;;;;;;4.40;3.03;;;;;;;10.46;40.84;97497.09;6271817;22;20184;-90
2022/04/12 06:47:54;;;;;;;6.20;3.33;;;;;;;10.76;40.98;97524.41;6278425;22;20652;-85
2022/04/12 06:50:24;;;;;;;2.80;2.30;;;;;;;10.94;39.92;97504.72;6283973;22;20165;-85
2022/04/12 06:53:12;;;;;;;3.50;2.50;;;;;;;11.10;39.30;97534.28;6290126;22;20218;-86
2022/04/12 06:55:39;;;;;;;3.33;2.60;;;;;;;11.08;39.92;97507.59;6274187;22;20176;-86
2022/04/12 06:58:09;;;;;;;8.80;3.07;;;;;;;11.16;39.59;97515.91;6272009;22;20219;-87
2022/04/12 07:00:39;;;;;;;2.23;2.10;;;;;;;11.20;39.39;97538.19;6274095;22;20175;-92
2022/04/12 07:03:11;;;;;;;5.07;2.83;;;;;;;11.32;40.03;97543.75;6274651;22;20733;-85
2022/04/12 07:05:41;;;;;;;6.77;4.00;;;;;;;11.05;40.04;97521.50;6274725;22;20168;-93
2022/04/12 07:08:12;;;;;;;4.57;2.63;;;;;;;11.43;40.11;97546.75;6279568;22;20201;-85
2022/04/12 07:10:47;;;;;;;5.00;2.77;;;;;;;11.46;39.19;97505.13;6249585;22;20182;-88
2022/04/12 07:13:16;;;;;;;3.67;2.70;;;;;;;11.73;39.14;97547.25;6298139;22;20163;-87
2022/04/12 07:15:46;;;;;;;2.87;1.90;;;;;;;11.51;38.25;97522.22;6295793;22;20149;-88
2022/04/12 07:18:14;;;;;;;3.07;2.77;;;;;;;11.14;40.00;97548.81;6296553;22;20171;-90
2022/04/12 07:20:48;;;;;;;4.20;2.30;;;;;;;10.97;39.62;97536.53;6296734;22;20177;-90
2022/04/12 07:23:18;;;;;;;6.47;2.87;;;;;;;10.94;39.84;97474.44;6296382;22;20165;-95
2022/04/12 07:25:54;;;;;;;7.90;3.53;;;;;;;11.40;39.64;97520.94;6286015;22;20164;-95
2022/04/12 07:28:23;;;;;;;8.33;2.87;;;;;;;11.69;38.92;97516.28;6284144;22;20468;-94
2022/04/12 07:30:51;;;;;;;11.30;3.70;;;;;;;11.73;39.14;97515.25;6284767;22;20166;-95
2022/04/12 07:33:27;;;;;;;5.37;2.97;;;;;;;11.76;39.00;97541.09;6284711;22;20235;-93
2022/04/12 07:36:17;;;;;;;4.57;2.97;;;;;;;11.57;39.06;97511.59;6286142;22;20165;-94
2022/04/12 07:38:53;;;;;;;5.03;3.00;;;;;;;11.76;38.25;97548.88;6285489;22;20175;-96
2022/04/12 07:41:21;;;;;;;4.80;3.30;;;;;;;11.93;37.76;97533.44;6257680;22;20177;-95
2022/04/12 07:43:49;;;;;;;5.50;2.67;;;;;;;11.83;37.49;97516.56;6284749;22;20183;-91
2022/04/12 07:46:19;;;;;;;6.27;2.30;;;;;;;11.89;37.64;97518.91;6281470;22;20254;-93
2022/04/12 07:48:48;;;;;;;5.23;2.80;;;;;;;11.72;37.60;97479.84;6257840;22;20165;-88
2022/04/12 07:51:16;;;;;;;2.50;2.17;;;;;;;11.61;37.08;97533.91;6296572;22;20182;-91
2022/04/12 07:53:48;;;;;;;4.23;2.63;;;;;;;11.61;38.34;97546.88;6282404;22;20357;-92
2022/04/12 07:56:17;;;;;;;4.37;2.30;;;;;;;11.48;38.36;97524.03;6280441;22;20235;-96
2022/04/12 07:58:46;;;;;;;4.13;2.23;;;;;;;11.28;38.95;97554.28;6281704;22;20161;-93
2022/04/12 08:01:14;;;;;;;3.50;2.97;;;;;;;11.21;39.10;97499.25;6282282;22;20191;-93
2022/04/12 08:03:44;;;;;;;3.90;3.20;;;;;;;11.74;38.68;97542.91;6280298;22;20176;-87
2022/04/12 08:06:15;;;;;;;5.10;2.73;;;;;;;11.78;36.97;97555.69;6280370;22;20229;-88
2022/04/12 08:08:48;;;;;;;5.83;2.37;;;;;;;11.14;37.42;97548.81;6275511;22;20206;-93
2022/04/12 08:11:16;;;;;;;2.10;1.80;;;;;;;11.19;37.60;97547.72;6282626;22;20222;-92
2022/04/12 08:13:45;;;;;;;6.23;3.40;;;;;;;11.27;37.31;97501.59;6278369;22;20247;-93
2022/04/12 08:16:15;;;;;;;3.93;2.53;;;;;;;11.61;36.84;97513.16;6285815;22;20180;-91
2022/04/12 08:18:46;;;;;;;3.13;2.30;;;;;;;11.63;35.63;97538.13;6295493;22;20163;-91
2022/04/12 08:21:13;;;;;;;3.43;2.57;;;;;;;11.58;35.50;97542.66;6290513;22;20157;-91
2022/04/12 08:23:45;;;;;;;6.20;3.03;;;;;;;11.69;36.06;97500.72;6286510;22;20172;-93
2022/04/12 08:26:19;;;;;;;5.40;3.47;;;;;;;12.05;36.31;97535.50;6280304;22;20164;-90
2022/04/12 08:28:47;;;;;;;7.80;3.90;;;;;;;11.69;34.88;97492.94;6281865;22;21244;-91
2022/04/12 08:31:16;;;;;;;2.87;1.87;;;;;;;11.24;35.70;97512.09;6276180;22;20178;-94
2022/04/12 08:33:45;;;;;;;3.23;2.10;;;;;;;11.07;35.79;97532.66;6278320;22;20166;-92
2022/04/12 08:36:16;;;;;;;2.20;1.70;;;;;;;10.99;36.75;97523.50;6276586;22;20199;-94
2022/04/12 08:38:46;;;;;;;5.80;3.03;;;;;;;10.86;35.85;97517.94;6275946;22;20168;-92
2022/04/12 08:41:14;;;;;;;5.40;2.40;;;;;;;11.00;36.10;97494.09;6277762;22;20641;-93
2022/04/12 08:43:43;;;;;;;3.27;2.20;;;;;;;11.18;36.29;97525.31;6277369;22;20169;-90
2022/04/12 08:46:11;;;;;;;7.53;2.53;;;;;;;11.06;35.25;97512.00;6279658;22;20161;-91
2022/04/12 08:48:40;;;;;;;5.10;2.40;;;;;;;10.94;35.56;97494.34;6278766;22;20293;-92
2022/04/12 08:51:07;;;;;;;7.13;3.40;;;;;;;10.88;35.09;97489.41;6294685;22;20157;-87
2022/04/12 08:53:40;;;;;;;5.53;2.80;;;;;;;10.98;35.85;97504.53;6282837;22;20191;-92
2022/04/12 08:56:09;;;;;;;3.77;2.33;;;;;;;11.17;35.58;97494.28;6280805;22;20172;-91
2022/04/12 08:58:38;;;;;;;9.83;3.87;;;;;;;11.12;34.53;97509.16;6280117;22;20177;-91
2022/04/12 09:01:30;;;;;;;5.63;2.77;;;;;;;11.13;34.81;97526.38;6283610;22;20167;-90
2022/04/12 09:03:59;;;;;;;7.17;2.63;;;;;;;10.95;34.72;97496.88;6253071;22;20188;-85
2022/04/12 09:06:33;;;;;;;3.80;2.87;;;;;;;11.10;35.26;97503.19;6280411;22;20194;-92
2022/04/12 09:09:12;;;;;;;4.83;2.13;;;;;;;11.05;35.05;97487.81;6285956;22;20200;-90
2022/04/12 09:11:41;;;;;;;2.30;1.70;;;;;;;11.36;35.08;97523.72;6284000;22;20168;-89
2022/04/12 09:14:13;;;;;;;3.67;2.63;;;;;;;11.68;35.11;97509.44;6285455;22;20345;-90
2022/04/12 09:16:44;;;;;;;2.10;1.90;;;;;;;11.44;33.98;97464.59;6295970;22;20573;-90
2022/04/12 09:19:12;;;;;;;3.70;2.53;;;;;;;11.57;34.42;97496.03;6271104;22;20170;-89
2022/04/12 09:21:46;;;;;;;2.90;1.97;;;;;;;11.32;34.00;97440.03;6296569;22;20168;-91
2022/04/12 09:24:21;;;;;;;2.20;2.00;;;;;;;11.68;34.49;97517.22;6240959;22;20655;-95
2022/04/12 09:26:56;;;;;;;4.10;2.07;;;;;;;11.46;35.27;97507.72;6293910;22;20196;-95
2022/04/12 09:29:30;;;;;;;2.60;2.40;;;;;;;11.45;36.13;97500.84;6287618;22;20183;-96
2022/04/12 09:31:58;;;;;;;3.43;2.07;;;;;;;11.58;35.94;97501.16;6286477;22;20174;-93
2022/04/12 09:34:26;;;;;;;3.37;1.97;;;;;;;11.41;36.05;97501.88;6258475;22;20168;-96
2022/04/12 09:37:17;;;;;;;3.37;2.20;;;;;;;11.81;37.08;97505.41;6282102;22;20252;-96
2022/04/12 09:40:05;;;;;;;3.17;2.20;;;;;;;12.01;33.80;97495.00;6284320;22;20181;-91
2022/04/12 09:42:54;;;;;;;4.73;2.50;;;;;;;12.12;34.68;97503.13;6282567;22;20165;-94
2022/04/12 09:45:30;;;;;;;5.03;2.53;;;;;;;12.05;34.45;97466.25;6276215;22;20162;-91
2022/04/12 09:48:04;;;;;;;4.00;2.07;;;;;;;11.70;34.98;97466.09;6275518;22;20609;-93
2022/04/12 09:51:01;;;;;;;3.70;2.37;;;;;;;11.63;35.89;97475.88;6283913;22;20227;-88
2022/04/12 09:53:41;;;;;;;3.73;2.00;;;;;;;11.75;36.57;97469.31;6285316;22;20622;-91
2022/04/12 09:56:15;;;;;;;2.60;2.00;;;;;;;11.61;35.41;97488.06;6278252;22;20171;-89
2022/04/12 09:58:46;;;;;;;2.53;2.07;;;;;;;11.40;35.54;97463.03;6280064;22;20168;-90
2022/04/12 10:01:16;;;;;;;2.77;2.17;;;;;;;11.18;35.66;97476.06;6278831;22;20161;-92
2022/04/12 10:03:47;;;;;;;4.77;2.57;;;;;;;10.54;36.60;97375.94;6273435;22;20233;-94
2022/04/12 10:06:21;;;;;;;2.33;1.90;;;;;;;11.17;36.26;97471.75;6276390;22;20168;-87
2022/04/12 10:08:54;;;;;;;3.37;2.30;;;;;;;11.66;36.48;97461.94;6272524;22;20210;-93
2022/04/12 10:11:24;;;;;;;4.50;2.13;;;;;;;12.02;35.48;97471.56;6274715;22;20171;-91
2022/04/12 10:13:57;;;;;;;5.57;1.90;;;;;;;11.97;35.55;97397.41;6223260;22;20219;-88
2022/04/12 10:16:24;;;;;;;5.30;2.80;;;;;;;12.42;34.34;97397.03;6253227;22;20705;-94
2022/04/12 10:18:54;;;;;;;3.17;2.20;;;;;;;12.46;34.47;97435.78;6276905;22;20317;-94
2022/04/12 10:21:24;;;;;;;2.93;2.03;;;;;;;12.09;34.85;97448.78;6274326;22;20189;-93
2022/04/12 10:23:56;;;;;;;4.13;2.33;;;;;;;12.02;34.58;97424.00;6275108;22;20167;-91
2022/04/12 10:26:27;;;;;;;3.87;2.00;;;;;;;12.01;34.92;97441.31;6271604;22;20634;-93
2022/04/12 10:28:59;;;;;;;3.00;1.80;;;;;;;11.78;34.65;97417.31;6275525;22;20242;-90
2022/04/12 10:31:32;;;;;;;3.03;2.10;;;;;;;11.76;36.56;97421.72;6275252;22;20243;-88
2022/04/12 10:34:14;;;;;;;3.47;2.10;;;;;;;11.67;36.57;97409.16;6275115;22;20224;-91
2022/04/12 10:37:08;;;;;;;2.33;2.00;;;;;;;11.83;36.74;97421.38;6274253;22;20174;-95
2022/04/12 10:40:09;;;;;;;3.20;2.10;;;;;;;11.83;36.27;97416.19;6275173;22;20229;-89
2022/04/12 10:42:38;;;;;;;3.10;2.13;;;;;;;11.81;36.71;97414.59;6278352;22;20168;-94
2022/04/12 10:45:06;;;;;;;4.93;2.30;;;;;;;12.30;36.32;97408.84;6275241;22;20163;-92
2022/04/12 10:47:40;;;;;;;4.13;2.30;;;;;;;12.65;34.50;97408.00;6276354;22;20192;-89
2022/04/12 10:50:14;;;;;;;2.63;1.80;;;;;;;12.07;35.01;97422.03;6277706;22;20621;-85
2022/04/12 10:52:48;;;;;;;2.17;1.80;;;;;;;11.96;36.12;97406.09;6289359;22;20157;-94
2022/04/12 10:55:25;;;;;;;2.53;1.90;;;;;;;11.81;36.35;97402.44;6278336;22;20181;-92
2022/04/12 10:58:10;;;;;;;3.47;2.07;;;;;;;11.88;35.52;97390.03;6275447;22;20161;-90
2022/04/12 11:00:42;;;;;;;4.40;1.87;;;;;;;12.13;35.29;97413.97;6277350;22;20628;-94
2022/04/12 11:03:13;;;;;;;2.30;1.90;;;;;;;12.45;35.75;97399.47;6277445;22;20206;-92
2022/04/12 11:05:45;;;;;;;2.37;1.93;;;;;;;12.90;36.14;97398.09;6275014;22;20176;-89
2022/04/12 11:08:15;;;;;;;2.00;1.80;;;;;;;12.45;34.48;97394.28;6278239;22;20227;-89
2022/04/12 11:10:58;;;;;;;1.63;1.53;;;;;;;12.27;34.44;97393.41;6273196;22;20166;-94
2022/04/12 11:13:34;;;;;;;3.40;2.10;;;;;;;12.13;34.33;97399.25;6275793;22;20164;-91
2022/04/12 11:16:09;;;;;;;4.37;1.70;;;;;;;12.39;36.28;97385.03;6275790;22;20301;-95
2022/04/12 11:18:59;;;;;;;2.30;2.10;;;;;;;12.56;34.94;97372.09;6276887;22;20165;-94
2022/04/12 11:21:51;;;;;;;1.70;1.60;;;;;;;12.33;36.80;97380.13;6278372;22;20685;-90
2022/04/12 11:24:21;;;;;;;3.63;1.77;;;;;;;12.60;35.36;97372.78;6290693;22;20164;-92
2022/04/12 11:27:07;;;;;;;4.00;1.90;;;;;;;12.99;35.55;97376.00;6301486;22;20166;-91
2022/04/12 11:29:38;;;;;;;2.93;2.23;;;;;;;12.75;35.04;97380.69;6301998;22;20151;-91
2022/04/12 11:32:06;;;;;;;2.40;1.90;;;;;;;12.61;34.40;97359.69;6300381;22;20163;-91
2022/04/12 11:34:36;;;;;;;3.80;2.00;;;;;;;12.67;35.46;97368.97;6287239;22;20166;-91
2022/04/12 11:37:07;;;;;;;2.30;1.80;;;;;;;12.74;34.75;97370.34;6282859;22;20188;-93
2022/04/12 11:39:42;;;;;;;1.97;1.70;;;;;;;12.60;35.11;97370.16;6251192;22;20549;-90
2022/04/12 11:42:12;;;;;;;2.90;1.67;;;;;;;12.69;35.08;97368.00;6276266;22;20245;-93
2022/04/12 11:44:40;;;;;;;2.73;2.10;;;;;;;12.67;34.19;97343.84;6276476;22;20163;-92
2022/04/12 11:47:10;;;;;;;2.33;1.90;;;;;;;12.72;34.59;97366.97;6276924;22;20163;-95
2022/04/12 11:49:40;;;;;;;4.63;1.90;;;;;;;12.82;35.73;97360.41;6275428;22;20159;-93
2022/04/12 11:52:16;;;;;;;2.17;1.97;;;;;;;12.83;34.22;97334.34;6288453;22;20181;-88
2022/04/12 11:54:48;;;;;;;2.87;1.67;;;;;;;13.12;34.48;97351.13;6284072;22;20192;-90